createdAt,value
2018-05-23T00:00:01.165Z,12.9
2018-05-23T00:05:01.220Z,13.4
2018-05-23T00:10:01.165Z,14.2
2018-05-23T00:15:01.268Z,14.5
2018-05-23T00:20:01.236Z,16.1
2018-05-23T00:25:01.261Z,15.9
2018-05-23T00:30:01.177Z,15.9
2018-05-23T00:35:01.252Z,16.2
2018-05-23T00:40:01.183Z,16.5
2018-05-23T00:45:01.193Z,16.3
2018-05-23T00:50:01.187Z,17.3
2018-05-23T01:10:00.765Z,18.6
2018-05-23T01:15:00.697Z,17.6
2018-05-23T01:20:00.614Z,18.2
2018-05-23T01:25:00.685Z,17.2
2018-05-23T01:30:00.647Z,16.6
2018-05-23T01:35:00.764Z,16.5
2018-05-23T01:40:00.617Z,17.0
2018-05-23T01:45:00.695Z,17.4
2018-05-23T01:50:00.621Z,19.8
2018-05-23T01:55:00.684Z,22.6
2018-05-23T02:00:00.616Z,24.0
2018-05-23T02:05:00.719Z,25.2
2018-05-23T02:10:00.617Z,26.3
2018-05-23T02:15:00.803Z,26.3
2018-05-23T02:20:00.728Z,25.0
2018-05-23T02:25:00.671Z,24.8
2018-05-23T02:30:00.598Z,24.6
2018-05-23T02:35:00.804Z,23.4
2018-05-23T02:40:00.615Z,22.5
2018-05-23T02:45:00.668Z,22.5
2018-05-23T02:50:00.658Z,22.3
2018-05-23T02:55:00.671Z,21.8
2018-05-23T03:00:00.618Z,22.6
2018-05-23T03:05:00.786Z,22.4
2018-05-23T03:10:00.680Z,22.5
2018-05-23T03:15:00.741Z,22.2
2018-05-23T03:20:00.655Z,22.0
2018-05-23T03:25:00.798Z,21.4
2018-05-23T03:30:00.681Z,22.0
2018-05-23T03:35:01.211Z,22.1
2018-05-23T03:40:00.607Z,21.7
2018-05-23T03:45:00.788Z,21.7
2018-05-23T03:50:00.672Z,22.2
2018-05-23T03:55:00.865Z,22.2
2018-05-23T04:20:01.236Z,24.6
2018-05-23T04:25:01.999Z,24.3
2018-05-23T04:30:01.266Z,23.9
2018-05-23T04:35:01.225Z,23.4
2018-05-23T04:40:01.155Z,23.9
2018-05-23T04:45:01.217Z,24.0
2018-05-23T04:50:01.095Z,24.4
2018-05-23T04:55:01.161Z,25.2
2018-05-23T05:00:01.160Z,26.0
2018-05-23T05:05:01.232Z,26.1
2018-05-23T05:10:01.367Z,26.6
2018-05-23T05:15:01.267Z,26.8
2018-05-23T05:20:01.124Z,26.6
2018-05-23T05:25:01.443Z,27.0
2018-05-23T05:30:01.170Z,26.7
2018-05-23T05:35:01.369Z,26.4
2018-05-23T05:40:01.207Z,26.2
2018-05-23T05:45:01.172Z,26.1
2018-05-23T05:50:01.110Z,25.6
2018-05-23T05:55:01.177Z,25.5
2018-05-23T06:00:01.131Z,25.2
2018-05-23T06:05:01.276Z,25.0
2018-05-23T06:10:01.739Z,24.2
2018-05-23T06:15:01.291Z,23.2
2018-05-23T06:20:01.163Z,21.4
2018-05-23T06:25:01.228Z,20.0
2018-05-23T06:30:01.164Z,18.5
2018-05-23T06:35:01.222Z,17.3
2018-05-23T06:40:01.150Z,16.4
2018-05-23T06:45:01.294Z,16.8
2018-05-23T06:50:01.313Z,17.4
2018-05-23T06:55:01.242Z,18.0
2018-05-23T07:00:01.218Z,18.8
2018-05-23T07:05:01.175Z,19.0
2018-05-23T07:10:01.173Z,17.7
2018-05-23T07:15:01.265Z,16.4
2018-05-23T07:20:01.174Z,14.4
2018-05-23T07:25:01.212Z,12.4
2018-05-23T07:30:01.291Z,11.2
2018-05-23T07:35:01.211Z,10.4
2018-05-23T07:40:01.297Z,9.0
2018-05-23T07:45:01.274Z,8.7
2018-05-23T07:50:01.158Z,8.1
2018-05-23T07:55:01.363Z,7.1
2018-05-23T08:00:01.173Z,6.8
2018-05-23T08:05:01.473Z,6.5
2018-05-23T08:10:01.200Z,6.0
2018-05-23T08:15:01.335Z,5.5
2018-05-23T08:20:01.330Z,5.3
2018-05-23T08:25:01.248Z,4.7
2018-05-23T08:30:01.181Z,4.7
2018-05-23T08:45:01.182Z,4.1
2018-05-23T08:50:01.231Z,4.0
2018-05-23T08:55:01.335Z,3.6
2018-05-23T09:00:01.192Z,3.5
2018-05-23T09:05:02.364Z,3.2
2018-05-23T09:10:01.193Z,3.0
2018-05-23T09:15:01.343Z,2.7
2018-05-23T09:20:01.198Z,2.5
2018-05-23T09:25:01.303Z,2.1
2018-05-23T09:30:01.242Z,2.1
2018-05-23T09:35:01.312Z,2.0
2018-05-23T09:40:01.248Z,2.2
2018-05-23T09:45:01.571Z,2.0
2018-05-23T09:50:01.237Z,2.1
2018-05-23T09:55:01.628Z,2.3
2018-05-23T10:00:01.248Z,2.4
2018-05-23T10:05:01.326Z,2.4
2018-05-23T10:10:01.283Z,2.6
2018-05-23T10:15:01.375Z,2.6
2018-05-23T10:20:01.265Z,2.2
2018-05-23T10:25:01.340Z,2.2
2018-05-23T10:30:01.415Z,2.0
2018-05-23T10:45:01.403Z,2.3
2018-05-23T10:50:01.416Z,2.0
2018-05-23T10:55:01.402Z,2.1
2018-05-23T11:00:01.463Z,1.8
2018-05-23T11:05:01.459Z,1.9
2018-05-23T11:15:01.901Z,2.0
2018-05-23T11:20:01.476Z,2.0
2018-05-23T11:25:01.415Z,2.0
2018-05-23T11:30:01.239Z,1.8
2018-05-23T11:45:01.351Z,1.5
2018-05-23T11:50:01.278Z,1.6
2018-05-23T11:55:01.424Z,1.5
2018-05-23T12:00:01.301Z,1.6
2018-05-23T12:05:01.364Z,2.0
2018-05-23T12:10:01.328Z,2.2
2018-05-23T12:15:01.362Z,2.1
2018-05-23T12:20:01.320Z,2.2
2018-05-23T12:25:01.399Z,2.2
2018-05-23T12:30:01.322Z,1.8
2018-05-23T12:35:01.385Z,1.6
2018-05-23T12:40:01.316Z,2.0
2018-05-23T12:45:01.389Z,2.0
2018-05-23T12:55:01.421Z,1.8
2018-05-23T13:00:01.253Z,1.8
2018-05-23T13:05:01.360Z,1.6
2018-05-23T13:15:01.439Z,1.8
2018-05-23T13:20:01.339Z,2.0
2018-05-23T13:25:01.811Z,2.2
2018-05-23T13:30:01.333Z,2.2
2018-05-23T13:35:01.473Z,2.2
2018-05-23T13:40:01.338Z,2.2
2018-05-23T13:45:01.424Z,2.0
2018-05-23T13:50:01.305Z,2.0
2018-05-23T13:55:01.483Z,2.1
2018-05-23T14:00:01.393Z,2.2
2018-05-23T14:05:01.468Z,2.3
2018-05-23T14:10:01.365Z,2.5
2018-05-23T14:15:01.501Z,2.6
2018-05-23T14:20:01.435Z,2.7
2018-05-23T14:25:01.473Z,2.8
2018-05-23T14:30:01.319Z,2.8
2018-05-23T14:35:01.547Z,2.7
2018-05-23T14:40:01.367Z,2.6
2018-05-23T14:45:01.423Z,3.0
2018-05-23T14:50:01.556Z,3.0
2018-05-23T14:55:01.456Z,2.8
2018-05-23T15:00:01.422Z,2.9
2018-05-23T15:05:01.556Z,3.1
2018-05-23T15:10:01.356Z,2.8
2018-05-23T15:15:01.458Z,3.0
2018-05-23T15:25:01.514Z,3.4
2018-05-23T15:30:01.453Z,3.2
2018-05-23T15:40:01.504Z,2.8
2018-05-23T15:45:01.506Z,3.0
2018-05-23T15:55:01.476Z,3.4
2018-05-23T16:00:01.417Z,3.4
2018-05-23T16:10:01.501Z,3.4
2018-05-23T16:15:01.536Z,3.3
2018-05-23T16:20:01.494Z,3.2
2018-05-23T16:25:01.485Z,3.2
2018-05-23T16:30:06.388Z,3.2
2018-05-23T16:35:01.500Z,3.2
2018-05-23T16:40:01.454Z,3.4
2018-05-23T16:45:01.473Z,3.2
2018-05-23T16:50:01.416Z,3.2
2018-05-23T16:55:01.492Z,3.0
2018-05-23T17:00:01.575Z,2.9
2018-05-23T17:05:01.472Z,2.6
2018-05-23T17:15:01.536Z,2.8
2018-05-23T17:25:01.463Z,3.0
2018-05-23T17:30:01.579Z,3.0
2018-05-23T17:35:01.567Z,3.2
2018-05-23T17:40:01.543Z,3.4
2018-05-23T17:45:01.418Z,3.6
2018-05-23T17:55:01.520Z,3.8
2018-05-23T18:00:01.392Z,3.6
2018-05-23T18:05:01.722Z,3.4
2018-05-23T18:10:01.401Z,3.4
2018-05-23T18:15:01.493Z,3.2
2018-05-23T18:20:01.367Z,3.4
2018-05-23T18:25:01.471Z,3.6
2018-05-23T18:30:01.467Z,3.9
2018-05-23T18:35:01.534Z,3.9
2018-05-23T18:40:01.469Z,3.9
2018-05-23T18:45:01.611Z,3.8
2018-05-23T18:50:01.413Z,3.9
2018-05-23T18:55:01.493Z,3.8
2018-05-23T19:00:01.490Z,4.0
2018-05-23T19:05:01.566Z,4.3
2018-05-23T19:15:01.532Z,4.3
2018-05-23T19:20:01.693Z,4.3
2018-05-23T19:25:01.505Z,4.5
2018-05-23T19:30:01.433Z,4.7
2018-05-23T19:35:01.498Z,5.0
2018-05-23T19:40:01.431Z,5.3
2018-05-23T19:45:01.561Z,5.6
2018-05-23T19:50:01.513Z,5.4
2018-05-23T19:55:06.512Z,5.4
2018-05-23T20:00:01.518Z,5.5
2018-05-23T20:15:01.621Z,5.3
2018-05-23T20:20:01.457Z,5.3
2018-05-23T20:25:01.536Z,5.2
2018-05-23T20:30:06.463Z,5.5
2018-05-23T20:35:01.539Z,5.7
2018-05-23T20:40:01.466Z,6.6
2018-05-23T20:45:01.652Z,7.2
2018-05-23T20:50:01.505Z,7.6
2018-05-23T20:55:01.573Z,8.0
2018-05-23T21:00:01.474Z,8.3
2018-05-23T21:05:01.780Z,7.7
2018-05-23T21:10:01.480Z,7.7
2018-05-23T21:15:01.602Z,7.5
2018-05-23T21:20:01.500Z,7.7
2018-05-23T21:25:01.587Z,7.6
2018-05-23T21:30:01.488Z,7.6
2018-05-23T21:35:01.601Z,7.4
2018-05-23T21:40:01.490Z,7.6
2018-05-23T21:45:01.648Z,7.2
2018-05-23T21:50:01.464Z,7.2
2018-05-23T21:55:01.588Z,7.4
2018-05-23T22:00:01.624Z,7.4
2018-05-23T22:05:01.663Z,7.4
2018-05-23T22:10:01.525Z,8.0
2018-05-23T22:15:06.665Z,8.6
2018-05-23T22:20:01.536Z,9.1
2018-05-23T22:25:06.642Z,9.2
2018-05-23T22:30:06.515Z,9.3
2018-05-23T22:35:01.602Z,9.2
2018-05-23T22:40:01.539Z,9.0
2018-05-23T22:45:01.640Z,9.2
2018-05-23T22:50:01.547Z,9.9
2018-05-23T22:55:01.655Z,10.4
2018-05-23T23:00:01.591Z,10.8
2018-05-23T23:05:01.648Z,11.0
2018-05-23T23:10:01.541Z,11.0
2018-05-23T23:15:01.569Z,11.0
2018-05-23T23:20:01.496Z,10.8
2018-05-23T23:25:01.758Z,10.3
2018-05-23T23:30:01.548Z,10.1
2018-05-23T23:35:01.594Z,9.8
2018-05-23T23:40:01.619Z,10.0
2018-05-23T23:45:01.586Z,11.0
2018-05-23T23:50:01.534Z,11.2
2018-05-23T23:55:01.718Z,11.6
